Time;durP1;ratioP1;P1;durP2;ratioP2;P2;SDS_P1;SDS_P2;PMS_P1;PMS_P2;Temp;Humidity;BMP_temperature;BMP_pressure;BME280_temperature;BME280_humidity;BME280_pressure;Samples;Min_cycle;Max_cycle;Signal;HPM_P1;HPM_P2
2023/05/30 00:02:11;;;;;;;5.95;1.67;;;;;;;;;;4969290;28;20105;-78
2023/05/30 00:04:39;;;;;;;5.53;1.40;;;;;;;;;;4974241;28;20046;-78
2023/05/30 00:07:05;;;;;;;6.90;2.00;;;;;;;;;;4974071;28;20030;-77
2023/05/30 00:09:30;;;;;;;6.43;1.50;;;;;;;;;;4988341;28;20118;-78
2023/05/30 00:11:56;;;;;;;4.93;1.42;;;;;;;;;;4987592;28;20085;-78
2023/05/30 00:14:23;;;;;;;7.00;1.70;;;;;;;;;;4969465;28;20034;-78
2023/05/30 00:16:48;;;;;;;8.05;1.55;;;;;;;;;;4976962;28;20026;-78
2023/05/30 00:19:14;;;;;;;3.67;1.30;;;;;;;;;;4991397;28;20434;-78
2023/05/30 00:21:39;;;;;;;7.18;1.35;;;;;;;;;;4971637;28;20031;-78
2023/05/30 00:24:05;;;;;;;5.30;1.58;;;;;;;;;;4974681;28;20030;-78
2023/05/30 00:26:31;;;;;;;7.47;1.50;;;;;;;;;;4996251;28;20030;-78
2023/05/30 00:28:56;;;;;;;7.35;1.75;;;;;;;;;;4994530;28;20064;-78
2023/05/30 00:31:23;;;;;;;7.20;1.80;;;;;;;;;;4977996;28;20147;-78
2023/05/30 00:33:48;;;;;;;8.38;1.70;;;;;;;;;;4994969;28;20375;-78
2023/05/30 00:36:14;;;;;;;6.63;1.50;;;;;;;;;;4990843;28;20019;-78
2023/05/30 00:38:40;;;;;;;7.47;1.73;;;;;;;;;;4972163;28;20516;-77
2023/05/30 00:41:05;;;;;;;8.60;1.77;;;;;;;;;;4968792;28;21337;-78
2023/05/30 00:43:31;;;;;;;6.90;1.63;;;;;;;;;;4977066;28;20162;-78
2023/05/30 00:45:56;;;;;;;7.22;1.30;;;;;;;;;;4976289;28;20427;-77
2023/05/30 00:48:22;;;;;;;6.05;1.30;;;;;;;;;;4991354;28;20038;-78
2023/05/30 00:50:49;;;;;;;5.75;1.50;;;;;;;;;;4994755;28;20494;-78
2023/05/30 00:53:15;;;;;;;7.15;1.60;;;;;;;;;;4975942;28;20034;-78
2023/05/30 00:55:41;;;;;;;5.43;1.42;;;;;;;;;;4991715;28;20383;-78
2023/05/30 00:58:07;;;;;;;8.98;1.75;;;;;;;;;;4974483;28;20034;-78
2023/05/30 01:00:38;;;;;;;8.00;1.40;;;;;;;;;;4976369;28;20077;-78
2023/05/30 01:03:04;;;;;;;6.18;1.58;;;;;;;;;;4973167;28;20037;-78
2023/05/30 01:05:30;;;;;;;5.45;1.45;;;;;;;;;;4974034;28;20033;-79
2023/05/30 01:07:56;;;;;;;5.85;1.60;;;;;;;;;;4987992;28;20587;-79
2023/05/30 01:10:22;;;;;;;6.22;1.52;;;;;;;;;;4985099;28;20058;-79
2023/05/30 01:13:13;;;;;;;6.55;1.90;;;;;;;;;;4971893;28;20487;-79
2023/05/30 01:16:03;;;;;;;6.95;1.70;;;;;;;;;;4970940;28;20033;-79
2023/05/30 01:18:37;;;;;;;6.00;1.83;;;;;;;;;;4979752;28;20032;-79
2023/05/30 01:21:10;;;;;;;5.82;1.60;;;;;;;;;;4972233;28;20030;-78
2023/05/30 01:23:54;;;;;;;7.47;1.58;;;;;;;;;;4974326;28;20092;-78
2023/05/30 01:26:33;;;;;;;6.50;2.03;;;;;;;;;;4978334;28;20525;-79
2023/05/30 01:29:02;;;;;;;7.65;1.83;;;;;;;;;;4986200;28;20037;-78
2023/05/30 01:31:29;;;;;;;7.35;1.58;;;;;;;;;;4972211;28;20466;-78
2023/05/30 01:33:55;;;;;;;6.35;1.48;;;;;;;;;;4962943;28;20055;-78
2023/05/30 01:36:21;;;;;;;7.60;1.83;;;;;;;;;;4974822;28;20451;-79
2023/05/30 01:38:46;;;;;;;6.60;1.75;;;;;;;;;;4989117;28;20053;-79
2023/05/30 01:41:26;;;;;;;9.20;1.90;;;;;;;;;;4972846;28;20026;-78
2023/05/30 01:44:03;;;;;;;5.63;1.85;;;;;;;;;;4971539;28;20475;-79
2023/05/30 01:46:34;;;;;;;6.38;1.92;;;;;;;;;;4968189;28;20026;-78
2023/05/30 01:49:27;;;;;;;5.57;1.70;;;;;;;;;;4986183;28;20085;-78
2023/05/30 01:51:57;;;;;;;8.35;1.92;;;;;;;;;;4975488;28;20474;-79
2023/05/30 01:54:24;;;;;;;8.05;1.88;;;;;;;;;;4990182;28;20475;-79
2023/05/30 01:56:56;;;;;;;9.32;2.00;;;;;;;;;;5001112;28;20554;-78
2023/05/30 01:59:24;;;;;;;9.23;2.03;;;;;;;;;;4993370;28;20383;-79
2023/05/30 02:01:53;;;;;;;10.02;1.90;;;;;;;;;;4999839;28;20510;-78
2023/05/30 02:04:18;;;;;;;6.20;1.58;;;;;;;;;;4984231;28;20041;-79
2023/05/30 02:06:43;;;;;;;9.60;1.60;;;;;;;;;;4976183;28;20482;-79
2023/05/30 02:09:09;;;;;;;6.45;1.65;;;;;;;;;;4995309;28;20096;-79
2023/05/30 02:11:34;;;;;;;7.93;2.00;;;;;;;;;;4993055;28;20033;-79
2023/05/30 02:14:00;;;;;;;8.60;1.70;;;;;;;;;;4968222;28;20034;-78
2023/05/30 02:16:26;;;;;;;7.50;1.88;;;;;;;;;;4987383;28;20082;-78
2023/05/30 02:18:52;;;;;;;6.32;1.70;;;;;;;;;;4975085;28;20101;-79
2023/05/30 02:21:19;;;;;;;8.57;2.15;;;;;;;;;;4973912;28;20140;-79
2023/05/30 02:23:44;;;;;;;7.95;2.22;;;;;;;;;;4972226;28;20068;-79
2023/05/30 02:26:10;;;;;;;9.55;2.75;;;;;;;;;;4985411;28;20054;-79
2023/05/30 02:28:35;;;;;;;4.97;1.58;;;;;;;;;;4970518;28;20084;-79
2023/05/30 02:31:02;;;;;;;5.13;1.70;;;;;;;;;;4989308;28;20505;-78
2023/05/30 02:33:27;;;;;;;8.57;2.13;;;;;;;;;;4975287;28;20479;-78
2023/05/30 02:35:53;;;;;;;5.80;1.80;;;;;;;;;;4988731;28;20030;-78
2023/05/30 02:38:18;;;;;;;7.45;1.73;;;;;;;;;;4973474;28;20123;-78
2023/05/30 02:40:43;;;;;;;7.15;1.80;;;;;;;;;;4971143;28;20025;-78
2023/05/30 02:43:09;;;;;;;5.07;1.50;;;;;;;;;;4974931;28;20022;-78
2023/05/30 02:45:34;;;;;;;9.65;2.20;;;;;;;;;;4993574;28;20031;-79
2023/05/30 02:47:59;;;;;;;8.45;1.60;;;;;;;;;;4973065;28;20065;-78
2023/05/30 02:50:25;;;;;;;7.40;1.65;;;;;;;;;;4998970;28;20030;-78
2023/05/30 02:52:50;;;;;;;5.95;1.75;;;;;;;;;;4985017;28;20027;-78
2023/05/30 02:55:15;;;;;;;7.72;1.90;;;;;;;;;;4992026;28;20494;-78
2023/05/30 02:57:42;;;;;;;8.20;1.80;;;;;;;;;;4975006;28;20546;-78
2023/05/30 03:00:10;;;;;;;6.97;1.88;;;;;;;;;;4995727;28;20037;-78
2023/05/30 03:02:35;;;;;;;7.13;1.63;;;;;;;;;;4988605;28;20041;-78
2023/05/30 03:05:03;;;;;;;5.47;1.50;;;;;;;;;;4972752;28;20030;-78
2023/05/30 03:07:29;;;;;;;6.85;1.80;;;;;;;;;;4976892;28;20034;-78
2023/05/30 03:09:55;;;;;;;8.60;1.98;;;;;;;;;;4989284;28;20022;-78
2023/05/30 03:12:22;;;;;;;8.80;1.98;;;;;;;;;;4971200;28;21379;-78
2023/05/30 03:14:48;;;;;;;6.30;1.90;;;;;;;;;;4996879;28;20024;-78
2023/05/30 03:17:14;;;;;;;6.05;1.98;;;;;;;;;;4995146;28;20030;-78
2023/05/30 03:19:39;;;;;;;7.80;2.08;;;;;;;;;;4981545;28;20498;-78
2023/05/30 03:22:05;;;;;;;8.23;2.20;;;;;;;;;;4975216;28;20034;-78
2023/05/30 03:24:30;;;;;;;6.50;2.00;;;;;;;;;;4987577;28;20030;-78
2023/05/30 03:26:56;;;;;;;6.97;1.98;;;;;;;;;;4988222;28;20030;-78
2023/05/30 03:29:21;;;;;;;6.35;2.13;;;;;;;;;;4988313;28;20031;-78
2023/05/30 03:31:47;;;;;;;7.60;2.20;;;;;;;;;;4991726;28;20548;-78
2023/05/30 03:34:12;;;;;;;5.57;1.85;;;;;;;;;;4972680;28;20030;-78
2023/05/30 03:36:38;;;;;;;6.88;2.03;;;;;;;;;;4973390;28;20037;-78
2023/05/30 03:39:04;;;;;;;9.02;1.88;;;;;;;;;;4968690;28;20042;-78
2023/05/30 03:41:29;;;;;;;8.18;2.33;;;;;;;;;;4988139;28;20018;-78
2023/05/30 03:43:55;;;;;;;5.05;2.10;;;;;;;;;;4975848;28;20026;-78
2023/05/30 03:46:21;;;;;;;6.45;1.80;;;;;;;;;;4976253;28;20030;-79
2023/05/30 03:48:47;;;;;;;9.10;2.08;;;;;;;;;;4967385;28;20042;-79
2023/05/30 03:51:12;;;;;;;7.28;1.85;;;;;;;;;;5002524;28;20398;-79
2023/05/30 03:53:38;;;;;;;9.15;2.10;;;;;;;;;;4993157;28;20198;-79
2023/05/30 03:56:04;;;;;;;8.18;1.98;;;;;;;;;;4996792;28;20360;-78
2023/05/30 03:58:29;;;;;;;8.35;2.20;;;;;;;;;;4975155;28;20458;-78
2023/05/30 04:00:55;;;;;;;6.97;2.10;;;;;;;;;;5003265;28;20070;-78
2023/05/30 04:03:20;;;;;;;7.30;1.92;;;;;;;;;;4985878;28;20057;-78
2023/05/30 04:05:47;;;;;;;6.55;2.13;;;;;;;;;;4978040;28;20029;-78
2023/05/30 04:08:13;;;;;;;7.53;2.00;;;;;;;;;;4996891;28;20034;-78
2023/05/30 04:10:38;;;;;;;9.35;2.35;;;;;;;;;;4974914;28;20495;-77
2023/05/30 04:13:04;;;;;;;9.32;2.40;;;;;;;;;;4990360;28;20023;-78
2023/05/30 04:15:29;;;;;;;7.70;2.10;;;;;;;;;;4983722;28;20621;-78
2023/05/30 04:17:57;;;;;;;7.97;2.50;;;;;;;;;;4974958;28;20029;-78
2023/05/30 04:20:23;;;;;;;11.23;2.45;;;;;;;;;;4993251;28;20029;-78
2023/05/30 04:22:49;;;;;;;6.68;2.10;;;;;;;;;;4969269;28;20077;-79
2023/05/30 04:25:16;;;;;;;6.60;1.85;;;;;;;;;;4981745;28;20031;-78
2023/05/30 04:27:43;;;;;;;8.98;2.40;;;;;;;;;;4983770;28;20033;-78
2023/05/30 04:30:09;;;;;;;6.13;2.10;;;;;;;;;;4974140;28;20030;-78
2023/05/30 04:32:35;;;;;;;7.78;2.38;;;;;;;;;;4992312;28;20022;-79
2023/05/30 04:35:02;;;;;;;8.05;2.30;;;;;;;;;;4991634;28;20372;-78
2023/05/30 04:37:27;;;;;;;7.72;2.33;;;;;;;;;;4990543;28;20026;-78
2023/05/30 04:39:55;;;;;;;5.30;2.00;;;;;;;;;;4982036;28;20087;-78
2023/05/30 04:42:26;;;;;;;6.90;2.03;;;;;;;;;;4989507;28;20388;-78
2023/05/30 04:44:53;;;;;;;5.32;2.17;;;;;;;;;;4991259;28;20030;-78
2023/05/30 04:47:21;;;;;;;7.32;2.42;;;;;;;;;;4978736;28;20029;-78
2023/05/30 04:49:46;;;;;;;7.45;2.10;;;;;;;;;;4966637;28;20034;-78
2023/05/30 04:52:12;;;;;;;5.18;1.92;;;;;;;;;;4989727;28;20041;-78
2023/05/30 04:54:38;;;;;;;6.88;2.40;;;;;;;;;;4969328;28;20029;-78
2023/05/30 04:57:04;;;;;;;8.50;2.25;;;;;;;;;;4972882;28;20038;-78
2023/05/30 04:59:29;;;;;;;6.63;2.28;;;;;;;;;;4971430;28;20109;-78
2023/05/30 05:01:56;;;;;;;6.05;2.00;;;;;;;;;;4971058;28;20126;-78
2023/05/30 05:04:21;;;;;;;8.93;2.40;;;;;;;;;;4969686;28;20498;-78
2023/05/30 05:06:46;;;;;;;6.70;2.20;;;;;;;;;;4986490;28;20041;-78
2023/05/30 05:09:13;;;;;;;4.53;2.03;;;;;;;;;;4975348;28;20407;-78
2023/05/30 05:11:38;;;;;;;6.18;2.05;;;;;;;;;;4983293;28;20540;-78
2023/05/30 05:14:04;;;;;;;7.05;2.50;;;;;;;;;;4984688;28;20034;-78
2023/05/30 05:16:29;;;;;;;5.80;2.30;;;;;;;;;;4970557;28;20034;-78
2023/05/30 05:18:55;;;;;;;7.75;2.60;;;;;;;;;;4971534;28;20054;-77
2023/05/30 05:21:20;;;;;;;5.40;2.17;;;;;;;;;;4991816;28;20483;-78
2023/05/30 05:23:45;;;;;;;6.90;2.40;;;;;;;;;;4968783;28;20026;-78
2023/05/30 05:26:11;;;;;;;6.10;2.42;;;;;;;;;;4970327;28;20459;-78
2023/05/30 05:28:36;;;;;;;6.78;2.60;;;;;;;;;;4967933;28;20026;-78
2023/05/30 05:31:02;;;;;;;7.38;2.33;;;;;;;;;;4972583;28;20034;-78
2023/05/30 05:33:27;;;;;;;6.22;2.47;;;;;;;;;;4992872;28;20069;-78
2023/05/30 05:35:52;;;;;;;8.05;2.38;;;;;;;;;;4984748;28;20423;-78
2023/05/30 05:38:18;;;;;;;7.05;2.70;;;;;;;;;;4973786;28;20403;-77
2023/05/30 05:40:43;;;;;;;6.18;2.42;;;;;;;;;;4971400;28;20026;-77
2023/05/30 05:43:09;;;;;;;4.70;2.17;;;;;;;;;;4984793;28;20113;-78
2023/05/30 05:45:34;;;;;;;6.55;2.40;;;;;;;;;;4995247;28;20022;-78
2023/05/30 05:48:00;;;;;;;7.47;2.70;;;;;;;;;;4987540;28;20032;-78
2023/05/30 05:50:26;;;;;;;8.93;3.15;;;;;;;;;;4968577;28;20030;-78
2023/05/30 05:52:51;;;;;;;6.40;2.80;;;;;;;;;;4965802;28;20463;-77
2023/05/30 05:55:16;;;;;;;6.88;2.90;;;;;;;;;;4965245;28;20038;-77
2023/05/30 05:57:42;;;;;;;9.00;2.45;;;;;;;;;;4984777;28;20033;-77
2023/05/30 06:00:08;;;;;;;6.30;2.58;;;;;;;;;;4971152;28;20029;-77
2023/05/30 06:02:33;;;;;;;8.48;2.90;;;;;;;;;;4987703;28;20030;-77
2023/05/30 06:04:58;;;;;;;9.02;3.05;;;;;;;;;;4978138;28;20459;-77
2023/05/30 06:07:24;;;;;;;8.10;2.70;;;;;;;;;;4995371;28;20052;-78
2023/05/30 06:09:50;;;;;;;5.53;2.58;;;;;;;;;;4973588;28;20026;-77
2023/05/30 06:12:15;;;;;;;7.03;2.72;;;;;;;;;;4999711;28;20041;-78
2023/05/30 06:14:41;;;;;;;9.10;2.78;;;;;;;;;;4991622;28;20019;-77
2023/05/30 06:17:07;;;;;;;7.93;2.88;;;;;;;;;;4992655;28;20038;-77
2023/05/30 06:19:33;;;;;;;5.53;2.55;;;;;;;;;;4990400;28;20617;-78
2023/05/30 06:21:58;;;;;;;7.63;2.72;;;;;;;;;;4992033;28;20046;-77
2023/05/30 06:24:23;;;;;;;7.75;2.75;;;;;;;;;;4974972;28;20026;-77
2023/05/30 06:26:49;;;;;;;5.80;2.78;;;;;;;;;;4989875;28;20113;-78
2023/05/30 06:29:14;;;;;;;7.65;2.95;;;;;;;;;;4974977;28;20069;-77
2023/05/30 06:31:40;;;;;;;6.68;2.90;;;;;;;;;;4975919;28;20037;-77
2023/05/30 06:34:05;;;;;;;7.55;3.10;;;;;;;;;;4990685;28;20026;-77
2023/05/30 06:36:31;;;;;;;6.88;2.60;;;;;;;;;;4971002;28;20034;-77
2023/05/30 06:38:57;;;;;;;7.82;2.78;;;;;;;;;;4967742;28;20105;-77
2023/05/30 06:41:22;;;;;;;8.05;2.70;;;;;;;;;;4994407;28;20033;-78
2023/05/30 06:43:48;;;;;;;6.65;2.83;;;;;;;;;;4971398;28;20443;-77
2023/05/30 06:46:13;;;;;;;9.48;3.13;;;;;;;;;;4968146;28;20033;-78
2023/05/30 06:48:39;;;;;;;8.70;2.70;;;;;;;;;;4969948;28;20072;-78
2023/05/30 06:51:06;;;;;;;7.63;3.05;;;;;;;;;;4988849;28;20030;-78
2023/05/30 06:53:32;;;;;;;7.38;2.90;;;;;;;;;;4985849;28;20114;-77
2023/05/30 06:55:57;;;;;;;6.00;2.55;;;;;;;;;;4973125;28;20125;-77
2023/05/30 06:58:22;;;;;;;7.10;2.58;;;;;;;;;;4979688;28;20030;-77
2023/05/30 07:00:48;;;;;;;7.60;2.53;;;;;;;;;;4974086;28;20398;-77
2023/05/30 07:03:13;;;;;;;6.40;2.50;;;;;;;;;;4969453;28;20142;-78
2023/05/30 07:05:39;;;;;;;6.95;2.92;;;;;;;;;;4991535;28;20030;-78
2023/05/30 07:08:04;;;;;;;5.80;2.80;;;;;;;;;;4970554;28;20066;-78
2023/05/30 07:10:29;;;;;;;9.50;2.97;;;;;;;;;;4992564;28;20022;-78
2023/05/30 07:12:55;;;;;;;6.60;2.78;;;;;;;;;;4995907;28;20038;-77
2023/05/30 07:15:20;;;;;;;6.68;3.08;;;;;;;;;;4975429;28;20034;-77
2023/05/30 07:17:46;;;;;;;12.40;3.00;;;;;;;;;;4994052;28;20390;-77
2023/05/30 07:20:11;;;;;;;9.43;2.97;;;;;;;;;;4993614;28;20283;-77
2023/05/30 07:22:38;;;;;;;5.93;2.70;;;;;;;;;;4978363;28;20402;-77
2023/05/30 07:25:05;;;;;;;6.90;2.40;;;;;;;;;;4976343;28;20034;-77
2023/05/30 07:27:30;;;;;;;5.32;2.63;;;;;;;;;;4967989;28;20069;-78
2023/05/30 07:29:56;;;;;;;6.63;2.75;;;;;;;;;;4969931;28;20030;-77
2023/05/30 07:32:21;;;;;;;7.40;2.78;;;;;;;;;;4985957;28;20018;-77
2023/05/30 07:34:47;;;;;;;5.63;2.80;;;;;;;;;;4981916;28;20027;-77
2023/05/30 07:37:12;;;;;;;5.35;2.70;;;;;;;;;;4962710;28;20031;-77
2023/05/30 07:39:38;;;;;;;6.70;3.05;;;;;;;;;;4965722;28;20018;-78
2023/05/30 07:42:03;;;;;;;7.53;2.50;;;;;;;;;;4976998;28;20446;-79
2023/05/30 07:44:28;;;;;;;8.38;2.53;;;;;;;;;;4975224;28;20030;-79
2023/05/30 07:46:54;;;;;;;9.00;3.13;;;;;;;;;;4994177;28;20034;-78
2023/05/30 07:49:20;;;;;;;10.02;3.20;;;;;;;;;;4975047;28;20118;-79
2023/05/30 07:51:46;;;;;;;7.35;2.88;;;;;;;;;;4991772;28;20026;-79
2023/05/30 07:54:11;;;;;;;6.78;2.88;;;;;;;;;;4991829;28;20031;-79
2023/05/30 07:56:36;;;;;;;6.70;2.53;;;;;;;;;;4991900;28;20026;-79
2023/05/30 07:59:02;;;;;;;8.25;3.17;;;;;;;;;;4992226;28;20097;-79
2023/05/30 08:01:28;;;;;;;6.38;3.08;;;;;;;;;;4990290;28;20030;-79
2023/05/30 08:03:54;;;;;;;7.65;3.17;;;;;;;;;;4998457;28;20429;-78
2023/05/30 08:06:20;;;;;;;7.78;2.80;;;;;;;;;;4981750;28;20101;-79
2023/05/30 08:08:46;;;;;;;7.53;2.95;;;;;;;;;;4981496;28;20507;-79
2023/05/30 08:11:11;;;;;;;7.00;2.95;;;;;;;;;;4994739;28;20112;-79
2023/05/30 08:13:36;;;;;;;6.25;3.30;;;;;;;;;;4983366;28;20082;-79
2023/05/30 08:16:02;;;;;;;7.20;3.10;;;;;;;;;;4978043;28;20494;-79
2023/05/30 08:18:31;;;;;;;8.05;2.92;;;;;;;;;;4997366;28;20040;-75
2023/05/30 08:20:56;;;;;;;6.70;3.15;;;;;;;;;;4998364;28;20018;-75
2023/05/30 08:23:22;;;;;;;9.15;2.80;;;;;;;;;;4989758;28;20040;-75
2023/05/30 08:25:48;;;;;;;9.48;2.90;;;;;;;;;;4982511;28;20022;-75
2023/05/30 08:28:14;;;;;;;6.45;2.88;;;;;;;;;;4980298;28;20026;-75
2023/05/30 08:30:40;;;;;;;6.97;3.08;;;;;;;;;;5001751;28;20032;-75
2023/05/30 08:33:07;;;;;;;9.98;3.03;;;;;;;;;;4975552;28;20026;-76
2023/05/30 08:35:33;;;;;;;7.85;2.95;;;;;;;;;;5006211;28;20026;-76
2023/05/30 08:37:59;;;;;;;6.05;2.70;;;;;;;;;;4997309;28;20440;-76
2023/05/30 08:40:26;;;;;;;6.50;2.90;;;;;;;;;;4971982;28;20466;-77
2023/05/30 08:42:51;;;;;;;5.90;2.88;;;;;;;;;;4996349;28;20475;-75
2023/05/30 08:45:19;;;;;;;7.90;2.85;;;;;;;;;;4998007;28;20038;-74
2023/05/30 08:47:46;;;;;;;10.27;3.72;;;;;;;;;;5001949;28;20105;-75
2023/05/30 08:50:12;;;;;;;8.05;3.00;;;;;;;;;;4982817;28;20035;-75
2023/05/30 08:52:40;;;;;;;6.40;3.20;;;;;;;;;;4995649;28;20018;-75
2023/05/30 08:55:14;;;;;;;5.47;2.90;;;;;;;;;;4995737;28;20030;-75
2023/05/30 08:58:04;;;;;;;7.35;3.22;;;;;;;;;;4998903;28;20025;-75
2023/05/30 09:00:31;;;;;;;5.57;3.10;;;;;;;;;;4988735;28;20080;-76
2023/05/30 09:02:57;;;;;;;8.13;3.75;;;;;;;;;;4986242;28;20042;-76
2023/05/30 09:05:24;;;;;;;9.23;3.70;;;;;;;;;;4978440;28;20057;-75
2023/05/30 09:07:50;;;;;;;7.80;3.20;;;;;;;;;;4997281;28;20022;-75
2023/05/30 09:10:16;;;;;;;12.68;4.05;;;;;;;;;;4981770;28;20030;-77
2023/05/30 09:12:42;;;;;;;6.90;3.03;;;;;;;;;;4987107;28;20501;-75
2023/05/30 09:15:08;;;;;;;7.05;2.97;;;;;;;;;;4999036;28;20034;-75
2023/05/30 09:17:33;;;;;;;5.90;3.00;;;;;;;;;;4998304;28;20038;-74
2023/05/30 09:19:59;;;;;;;8.15;3.35;;;;;;;;;;4984247;28;20057;-76
2023/05/30 09:22:26;;;;;;;6.03;2.88;;;;;;;;;;4975635;28;20530;-76
2023/05/30 09:25:00;;;;;;;9.07;3.47;;;;;;;;;;4990906;28;20026;-75
2023/05/30 09:27:27;;;;;;;6.38;3.05;;;;;;;;;;4981970;28;20041;-75
2023/05/30 09:29:53;;;;;;;9.13;3.00;;;;;;;;;;4978844;28;20511;-77
2023/05/30 09:32:20;;;;;;;7.88;3.60;;;;;;;;;;4999424;28;20034;-75
2023/05/30 09:34:54;;;;;;;9.57;3.55;;;;;;;;;;4981971;28;20038;-75
2023/05/30 09:37:19;;;;;;;7.75;3.67;;;;;;;;;;4975034;28;20379;-75
2023/05/30 09:40:04;;;;;;;9.55;3.40;;;;;;;;;;4977819;28;20053;-75
2023/05/30 09:42:44;;;;;;;9.02;3.30;;;;;;;;;;5006808;28;20018;-75
2023/05/30 09:45:12;;;;;;;7.45;3.00;;;;;;;;;;4994129;28;20041;-77
2023/05/30 09:47:46;;;;;;;8.00;3.30;;;;;;;;;;4985433;28;20020;-76
2023/05/30 09:50:22;;;;;;;9.70;3.33;;;;;;;;;;4979672;28;20037;-76
2023/05/30 09:52:51;;;;;;;8.80;3.55;;;;;;;;;;4998001;28;20465;-75
2023/05/30 09:55:17;;;;;;;7.30;3.13;;;;;;;;;;4995959;28;20053;-76
2023/05/30 09:57:48;;;;;;;8.73;3.75;;;;;;;;;;4995742;28;20479;-76
2023/05/30 10:00:35;;;;;;;8.90;3.05;;;;;;;;;;4977875;28;20469;-75
2023/05/30 10:03:00;;;;;;;8.15;3.35;;;;;;;;;;4993538;28;20387;-77
2023/05/30 10:05:28;;;;;;;7.75;3.10;;;;;;;;;;4978556;28;20022;-75
2023/05/30 10:07:57;;;;;;;7.70;3.40;;;;;;;;;;4995914;28;20045;-76
2023/05/30 10:10:23;;;;;;;8.25;3.17;;;;;;;;;;4992959;28;20062;-75
2023/05/30 10:12:54;;;;;;;9.00;3.50;;;;;;;;;;4979005;28;20033;-75
2023/05/30 10:15:21;;;;;;;9.48;3.10;;;;;;;;;;4992637;28;20031;-75
2023/05/30 10:18:06;;;;;;;6.80;3.08;;;;;;;;;;4979253;28;20090;-75
2023/05/30 10:20:35;;;;;;;8.80;3.20;;;;;;;;;;4976393;28;20053;-75
2023/05/30 10:23:06;;;;;;;7.57;3.28;;;;;;;;;;4994608;28;20030;-75
2023/05/30 10:25:33;;;;;;;11.20;3.33;;;;;;;;;;4977938;28;20371;-76
2023/05/30 10:28:02;;;;;;;5.57;3.00;;;;;;;;;;4989638;28;20054;-76
2023/05/30 10:30:32;;;;;;;9.10;3.30;;;;;;;;;;4996442;28;20050;-76
2023/05/30 10:33:09;;;;;;;7.43;3.10;;;;;;;;;;4998257;28;20034;-75
2023/05/30 10:35:35;;;;;;;9.70;3.30;;;;;;;;;;4994200;28;20033;-75
2023/05/30 10:38:04;;;;;;;7.18;3.08;;;;;;;;;;4997791;28;20114;-76
2023/05/30 10:40:59;;;;;;;10.15;3.33;;;;;;;;;;4979120;28;20084;-75
2023/05/30 10:43:37;;;;;;;6.28;2.90;;;;;;;;;;4994660;28;20026;-75
2023/05/30 10:46:31;;;;;;;6.70;3.20;;;;;;;;;;4977149;28;20034;-77
2023/05/30 10:49:10;;;;;;;9.57;3.30;;;;;;;;;;4971442;28;20023;-76
2023/05/30 10:51:58;;;;;;;9.07;3.35;;;;;;;;;;5000560;28;20393;-75
2023/05/30 10:54:24;;;;;;;7.13;3.25;;;;;;;;;;4985284;28;20398;-75
2023/05/30 10:56:51;;;;;;;8.80;2.90;;;;;;;;;;4979448;28;20022;-76
2023/05/30 10:59:20;;;;;;;7.50;3.20;;;;;;;;;;4989724;28;20155;-76
2023/05/30 11:02:03;;;;;;;10.05;3.60;;;;;;;;;;4994647;28;20077;-75
2023/05/30 11:04:42;;;;;;;8.60;3.17;;;;;;;;;;4977314;28;20505;-77
2023/05/30 11:07:10;;;;;;;9.50;3.00;;;;;;;;;;4978141;28;20443;-77
2023/05/30 11:09:59;;;;;;;8.38;3.33;;;;;;;;;;4994801;28;20105;-76
2023/05/30 11:12:25;;;;;;;8.20;3.08;;;;;;;;;;4977376;28;20053;-76
2023/05/30 11:14:55;;;;;;;9.52;3.22;;;;;;;;;;5001416;28;20029;-76
2023/05/30 11:17:28;;;;;;;9.65;3.60;;;;;;;;;;4980437;28;20054;-76
2023/05/30 11:20:06;;;;;;;8.23;3.38;;;;;;;;;;4983333;28;20057;-77
2023/05/30 11:22:32;;;;;;;8.60;3.22;;;;;;;;;;5002549;28;20049;-76
2023/05/30 11:25:16;;;;;;;9.07;3.72;;;;;;;;;;4994971;28;20055;-75
2023/05/30 11:28:00;;;;;;;7.35;3.17;;;;;;;;;;4981664;28;20014;-76
2023/05/30 11:30:25;;;;;;;9.77;3.65;;;;;;;;;;4989944;28;20033;-76
2023/05/30 11:32:53;;;;;;;6.85;3.00;;;;;;;;;;4995151;28;20026;-75
2023/05/30 11:35:20;;;;;;;5.03;2.80;;;;;;;;;;4982907;28;20046;-76
2023/05/30 11:37:46;;;;;;;8.85;3.25;;;;;;;;;;4995556;28;20145;-75
2023/05/30 11:40:14;;;;;;;9.18;3.33;;;;;;;;;;4988037;28;20022;-76
2023/05/30 11:42:40;;;;;;;9.23;3.40;;;;;;;;;;4998639;28;20073;-75
2023/05/30 11:45:07;;;;;;;8.10;2.92;;;;;;;;;;4982210;28;20038;-76
2023/05/30 11:47:33;;;;;;;9.30;3.22;;;;;;;;;;4988775;28;20438;-76
2023/05/30 11:49:58;;;;;;;9.77;3.53;;;;;;;;;;4983457;28;20037;-76
2023/05/30 11:52:23;;;;;;;9.10;3.95;;;;;;;;;;5000009;28;20033;-76
2023/05/30 11:54:49;;;;;;;6.90;2.78;;;;;;;;;;4980743;28;20038;-76
2023/05/30 11:57:17;;;;;;;9.80;3.53;;;;;;;;;;4993318;28;20090;-75
2023/05/30 11:59:44;;;;;;;8.88;3.25;;;;;;;;;;4982476;28;20049;-76
2023/05/30 12:02:10;;;;;;;7.03;3.33;;;;;;;;;;4993037;28;20529;-77
2023/05/30 12:04:37;;;;;;;7.57;3.25;;;;;;;;;;5000890;28;20026;-75
2023/05/30 12:07:05;;;;;;;7.32;3.08;;;;;;;;;;5002878;28;20462;-75
2023/05/30 12:09:41;;;;;;;8.20;3.38;;;;;;;;;;4982968;28;20057;-76
2023/05/30 12:12:07;;;;;;;10.93;3.40;;;;;;;;;;5001180;28;20525;-75
2023/05/30 12:15:02;;;;;;;6.22;3.03;;;;;;;;;;4998624;28;20034;-76
2023/05/30 12:17:28;;;;;;;5.90;2.97;;;;;;;;;;4978162;28;20038;-75
2023/05/30 12:19:55;;;;;;;7.57;3.00;;;;;;;;;;4984069;28;20034;-76
2023/05/30 12:22:22;;;;;;;10.68;3.30;;;;;;;;;;4984197;28;20474;-75
2023/05/30 12:24:49;;;;;;;9.07;2.92;;;;;;;;;;4997695;28;20474;-76
2023/05/30 12:27:26;;;;;;;7.97;2.85;;;;;;;;;;4975768;28;20027;-76
2023/05/30 12:29:51;;;;;;;7.78;3.00;;;;;;;;;;4978318;28;20038;-75
2023/05/30 12:32:25;;;;;;;9.10;3.53;;;;;;;;;;4981706;28;20096;-76
2023/05/30 12:34:53;;;;;;;7.47;3.13;;;;;;;;;;4999148;28;20030;-76
2023/05/30 12:37:19;;;;;;;6.65;2.75;;;;;;;;;;4980304;28;20034;-76
2023/05/30 12:39:52;;;;;;;6.05;3.03;;;;;;;;;;4985685;28;20080;-76
2023/05/30 12:42:27;;;;;;;7.43;2.92;;;;;;;;;;4977876;28;20033;-76
2023/05/30 12:44:58;;;;;;;5.05;2.88;;;;;;;;;;4981292;28;20029;-77
2023/05/30 12:47:24;;;;;;;5.57;2.88;;;;;;;;;;4979762;28;20506;-76
2023/05/30 12:49:50;;;;;;;9.05;3.22;;;;;;;;;;4996847;28;20026;-77
2023/05/30 12:52:18;;;;;;;7.25;3.20;;;;;;;;;;4979831;28;20069;-75
2023/05/30 12:54:44;;;;;;;7.07;2.90;;;;;;;;;;4980433;28;20490;-75
2023/05/30 12:57:10;;;;;;;10.02;3.10;;;;;;;;;;4998811;28;20037;-76
2023/05/30 12:59:37;;;;;;;6.68;3.40;;;;;;;;;;4979711;28;20024;-77
2023/05/30 13:02:03;;;;;;;6.95;3.40;;;;;;;;;;4990977;28;20041;-75
2023/05/30 13:04:29;;;;;;;6.90;2.90;;;;;;;;;;5006696;28;20379;-75
2023/05/30 13:06:55;;;;;;;6.85;3.10;;;;;;;;;;5003556;28;20061;-76
2023/05/30 13:09:21;;;;;;;7.43;3.53;;;;;;;;;;4986561;28;20217;-76
2023/05/30 13:11:46;;;;;;;7.15;3.42;;;;;;;;;;4990534;28;20540;-76
2023/05/30 13:14:12;;;;;;;6.70;3.65;;;;;;;;;;4996965;28;20466;-75
2023/05/30 13:16:37;;;;;;;8.23;3.33;;;;;;;;;;4996396;28;20018;-75
2023/05/30 13:19:03;;;;;;;7.90;3.30;;;;;;;;;;4985642;28;20125;-76
2023/05/30 13:21:28;;;;;;;9.57;4.15;;;;;;;;;;5000873;28;20058;-76
2023/05/30 13:23:54;;;;;;;7.40;3.90;;;;;;;;;;4980115;28;20026;-77
2023/05/30 13:26:20;;;;;;;7.05;3.53;;;;;;;;;;4996930;28;20473;-77
2023/05/30 13:28:45;;;;;;;8.20;3.30;;;;;;;;;;4998568;28;20022;-76
2023/05/30 13:31:12;;;;;;;6.38;3.90;;;;;;;;;;4997716;28;20022;-75
2023/05/30 13:33:38;;;;;;;6.82;3.40;;;;;;;;;;4983631;28;20094;-76
2023/05/30 13:36:03;;;;;;;5.90;3.65;;;;;;;;;;4992789;28;20101;-75
2023/05/30 13:38:29;;;;;;;5.35;3.28;;;;;;;;;;4994683;28;20018;-76
2023/05/30 13:40:54;;;;;;;9.55;3.72;;;;;;;;;;4997423;28;20022;-77
2023/05/30 13:43:22;;;;;;;7.95;3.70;;;;;;;;;;4996530;28;20105;-76
2023/05/30 13:45:48;;;;;;;6.68;3.20;;;;;;;;;;5000505;28;20034;-76
2023/05/30 13:48:15;;;;;;;7.22;3.70;;;;;;;;;;4997000;28;20041;-76
2023/05/30 13:50:42;;;;;;;7.90;4.25;;;;;;;;;;4977669;28;20035;-76
2023/05/30 13:53:08;;;;;;;6.78;3.45;;;;;;;;;;4971557;28;20041;-75
2023/05/30 13:55:34;;;;;;;8.80;3.40;;;;;;;;;;4998565;28;20030;-76
2023/05/30 13:58:00;;;;;;;8.00;3.83;;;;;;;;;;4995770;28;20034;-75
2023/05/30 14:00:25;;;;;;;7.50;3.30;;;;;;;;;;4978768;28;20363;-75
2023/05/30 14:02:51;;;;;;;4.68;3.08;;;;;;;;;;4996049;28;20032;-76
2023/05/30 14:05:17;;;;;;;7.68;3.35;;;;;;;;;;4996249;28;20459;-75
2023/05/30 14:07:42;;;;;;;5.97;3.20;;;;;;;;;;4980264;28;20076;-77
2023/05/30 14:10:08;;;;;;;9.00;3.72;;;;;;;;;;4978381;28;20062;-75
2023/05/30 14:12:34;;;;;;;4.95;3.17;;;;;;;;;;4997044;28;20526;-76
2023/05/30 14:15:01;;;;;;;5.20;3.28;;;;;;;;;;4999261;28;20032;-76
2023/05/30 14:17:26;;;;;;;5.00;3.30;;;;;;;;;;4978517;28;20053;-76
2023/05/30 14:19:52;;;;;;;7.97;3.55;;;;;;;;;;5000725;28;20474;-75
2023/05/30 14:22:17;;;;;;;5.65;4.07;;;;;;;;;;4997482;28;20084;-75
2023/05/30 14:24:42;;;;;;;6.25;3.33;;;;;;;;;;4999635;28;20026;-76
2023/05/30 14:27:08;;;;;;;7.32;3.65;;;;;;;;;;4996063;28;20390;-76
2023/05/30 14:29:34;;;;;;;5.32;3.20;;;;;;;;;;4994892;28;20034;-76
2023/05/30 14:31:59;;;;;;;6.28;3.70;;;;;;;;;;4994010;28;20085;-76
2023/05/30 14:34:25;;;;;;;5.25;3.20;;;;;;;;;;4976231;28;20034;-76
2023/05/30 14:36:50;;;;;;;5.50;3.50;;;;;;;;;;4971917;28;20051;-77
2023/05/30 14:39:16;;;;;;;5.35;3.33;;;;;;;;;;4993045;28;20105;-77
2023/05/30 14:41:41;;;;;;;5.82;3.60;;;;;;;;;;4988255;28;20446;-77
2023/05/30 14:44:07;;;;;;;6.25;3.20;;;;;;;;;;4990274;28;20058;-76
2023/05/30 14:46:32;;;;;;;7.40;3.30;;;;;;;;;;4994844;28;20029;-76